Time;durP1;ratioP1;P1;durP2;ratioP2;P2;SDS_P1;SDS_P2;PMS_P1;PMS_P2;Temp;Humidity;BMP_temperature;BMP_pressure;BME280_temperature;BME280_humidity;BME280_pressure;Samples;Min_cycle;Max_cycle;Signal;HPM_P1;HPM_P2
2021/11/20 00:02:16;;;;;;;6.42;5.10;;;;;;;7.31;100.00;98947.69;1754788;80;21013;-74
2021/11/20 00:04:43;;;;;;;;;;;;;;;7.32;100.00;98954.17;1779707;80;20978;-74
2021/11/20 00:07:10;;;;;;;8.20;4.47;;;;;;;7.35;100.00;98948.80;1779024;80;20433;-75
2021/11/20 00:09:39;;;;;;;7.67;4.20;;;;;;;7.35;100.00;98944.87;1779088;80;21329;-74
2021/11/20 00:12:11;;;;;;;5.35;4.20;;;;;;;7.36;100.00;98935.23;1778783;80;21049;-74
2021/11/20 00:14:39;;;;;;;5.62;3.72;;;;;;;7.38;100.00;98939.11;1776252;80;21092;-75
2021/11/20 00:17:07;;;;;;;5.15;3.62;;;;;;;7.40;100.00;98934.20;1779171;80;21041;-74
2021/11/20 00:19:34;;;;;;;5.92;3.62;;;;;;;7.41;100.00;98924.56;1779269;80;21033;-75
2021/11/20 00:22:12;;;;;;;5.03;3.62;;;;;;;7.43;100.00;98913.56;1779537;80;21122;-75
2021/11/20 00:24:43;;;;;;;4.72;3.30;;;;;;;7.46;100.00;98914.77;1779401;80;21481;-76
2021/11/20 00:27:17;;;;;;;5.20;3.58;;;;;;;7.51;100.00;98907.55;1778471;80;21053;-76
2021/11/20 00:29:59;;;;;;;5.15;3.60;;;;;;;7.54;100.00;98902.16;1779161;80;21017;-75
2021/11/20 00:32:21;;;;;;;5.83;3.60;;;;;;;7.56;100.00;98895.09;1777392;80;21059;-76
2021/11/20 00:34:48;;;;;;;5.03;3.30;;;;;;;7.61;100.00;98891.80;1780057;80;21118;-78
2021/11/20 00:37:17;;;;;;;5.55;3.27;;;;;;;7.65;100.00;98881.58;1752545;80;21052;-77
2021/11/20 00:39:45;;;;;;;4.65;3.47;;;;;;;7.67;100.00;98877.59;1749555;82;21493;-78
2021/11/20 00:42:13;;;;;;;4.60;3.50;;;;;;;7.69;100.00;98874.44;1719606;82;20998;-77
2021/11/20 00:44:39;;;;;;;4.37;3.10;;;;;;;7.69;100.00;98872.66;1749579;82;21036;-78
2021/11/20 00:47:07;;;;;;;4.78;3.62;;;;;;;7.71;100.00;98865.58;1749056;82;21140;-77
2021/11/20 00:49:34;;;;;;;5.50;3.95;;;;;;;7.73;100.00;98857.20;1748778;82;20986;-77
2021/11/20 00:52:03;;;;;;;6.15;3.72;;;;;;;7.76;100.00;98857.05;1748585;82;21485;-77
2021/11/20 00:54:30;;;;;;;4.45;3.45;;;;;;;7.78;100.00;98858.30;1767812;80;21021;-77
2021/11/20 00:56:58;;;;;;;4.75;3.90;;;;;;;7.80;100.00;98845.09;1779528;80;21558;-77
2021/11/20 00:59:25;;;;;;;5.87;4.33;;;;;;;7.80;100.00;98835.92;1779387;80;21092;-74
2021/11/20 01:02:00;;;;;;;5.10;4.05;;;;;;;7.81;100.00;98828.47;1779622;80;21052;-77
2021/11/20 01:04:27;;;;;;;5.67;4.10;;;;;;;7.82;100.00;98824.91;1779672;80;21008;-77
2021/11/20 01:06:56;;;;;;;5.80;4.12;;;;;;;7.84;100.00;98815.21;1779528;80;21068;-78
2021/11/20 01:09:32;;;;;;;6.15;4.40;;;;;;;7.86;100.00;98805.51;1779680;80;20974;-80
2021/11/20 01:12:06;;;;;;;5.50;4.20;;;;;;;7.86;100.00;98803.73;1779889;80;21105;-78
2021/11/20 01:14:33;;;;;;;5.72;4.67;;;;;;;7.84;100.00;98797.70;1779036;80;21552;-79
2021/11/20 01:17:03;;;;;;;7.60;5.80;;;;;;;7.88;100.00;98806.29;1749726;80;20993;-78
2021/11/20 01:19:31;;;;;;;5.42;4.60;;;;;;;7.91;100.00;98801.77;1744792;82;21036;-80
2021/11/20 01:22:02;;;;;;;6.83;4.78;;;;;;;7.94;100.00;98792.91;1749325;82;21235;-81
2021/11/20 01:24:31;;;;;;;7.67;4.97;;;;;;;7.96;100.00;98777.95;1748442;82;21082;-79
2021/11/20 01:26:58;;;;;;;7.58;5.25;;;;;;;7.98;100.00;98773.45;1748182;82;21486;-78
2021/11/20 01:29:26;;;;;;;7.37;5.37;;;;;;;7.98;100.00;98774.77;1747920;80;21067;-79
2021/11/20 01:31:56;;;;;;;5.40;4.27;;;;;;;8.00;100.00;98765.06;1778653;80;21037;-78
2021/11/20 01:34:24;;;;;;;5.87;4.45;;;;;;;7.92;100.00;98752.80;1779795;80;21591;-79
2021/11/20 01:36:56;;;;;;;6.97;4.90;;;;;;;8.08;100.00;98769.48;1757897;80;21870;-79
2021/11/20 01:39:28;;;;;;;6.60;5.22;;;;;;;8.10;100.00;98749.29;1752039;80;21037;-77
2021/11/20 01:42:29;;;;;;;7.10;5.72;;;;;;;8.13;100.00;98750.91;1710907;83;21070;-78
2021/11/20 01:45:07;;;;;;;9.78;5.90;;;;;;;8.14;100.00;98744.29;1775493;80;21047;-78
2021/11/20 01:48:02;;;;;;;7.40;5.65;;;;;;;8.15;100.00;98734.17;1777004;80;22291;-77
2021/11/20 01:50:35;;;;;;;7.28;5.70;;;;;;;8.18;100.00;98728.77;1710295;83;21099;-78
2021/11/20 01:53:08;;;;;;;6.80;4.83;;;;;;;8.24;100.00;98729.41;1710574;83;21087;-78
2021/11/20 01:56:09;;;;;;;9.10;5.67;;;;;;;8.27;100.00;98722.69;1710662;83;21096;-77
2021/11/20 01:59:01;;;;;;;7.67;5.40;;;;;;;8.30;100.00;98717.28;1710065;83;21055;-78
2021/11/20 02:01:50;;;;;;;10.38;5.85;;;;;;;8.32;100.00;98703.16;1688990;83;21316;-77
2021/11/20 02:04:41;;;;;;;8.28;5.58;;;;;;;8.35;100.00;98703.46;1707932;83;21146;-80
2021/11/20 02:07:27;;;;;;;7.72;5.67;;;;;;;8.38;100.00;98694.15;1777566;80;21050;-77
2021/11/20 02:10:27;;;;;;;7.78;5.60;;;;;;;8.42;100.00;98686.55;1777054;80;21533;-77
2021/11/20 02:12:59;;;;;;;8.20;6.00;;;;;;;8.47;100.00;98686.31;1777504;80;21104;-76
2021/11/20 02:15:35;;;;;;;7.62;5.58;;;;;;;8.50;100.00;98678.27;1777116;80;21057;-74
2021/11/20 02:18:02;;;;;;;7.92;5.47;;;;;;;8.55;100.00;98670.53;1710501;83;21824;-75
2021/11/20 02:20:48;;;;;;;8.43;5.50;;;;;;;8.60;100.00;98672.47;1710877;83;21027;-74
2021/11/20 02:23:19;;;;;;;8.00;4.58;;;;;;;8.62;100.00;98678.94;1706072;83;21109;-74
2021/11/20 02:25:46;;;;;;;6.08;5.03;;;;;;;8.67;100.00;98677.38;1710744;83;21073;-73
2021/11/20 02:28:19;;;;;;;8.40;5.55;;;;;;;8.71;100.00;98677.61;1701658;83;21082;-74
2021/11/20 02:30:48;;;;;;;6.87;5.25;;;;;;;8.74;100.00;98677.44;1710392;83;22198;-74
2021/11/20 02:33:25;;;;;;;7.05;4.83;;;;;;;8.77;100.00;98673.36;1710578;83;21105;-73
2021/11/20 02:35:57;;;;;;;6.95;4.90;;;;;;;8.79;100.00;98671.51;1703287;83;21080;-73
2021/11/20 02:38:30;;;;;;;6.95;4.95;;;;;;;8.82;100.00;98658.20;1758024;80;21029;-72
2021/11/20 02:40:58;;;;;;;9.18;5.60;;;;;;;8.86;100.00;98647.94;1747631;82;21057;-73
2021/11/20 02:43:28;;;;;;;11.45;5.87;;;;;;;8.88;100.00;98643.45;1717434;82;21060;-73
2021/11/20 02:46:06;;;;;;;10.15;5.65;;;;;;;8.92;100.00;98647.58;1746902;82;21017;-75
2021/11/20 02:48:34;;;;;;;5.65;4.75;;;;;;;8.96;100.00;98645.18;1718044;82;21053;-73
2021/11/20 02:51:11;;;;;;;5.35;3.92;;;;;;;9.00;100.00;98644.09;1747560;82;21100;-75
2021/11/20 02:53:47;;;;;;;6.55;4.28;;;;;;;9.02;100.00;98639.61;1747486;82;22172;-73
2021/11/20 02:56:20;;;;;;;5.35;3.65;;;;;;;9.07;100.00;98639.83;1753195;81;21114;-74
2021/11/20 02:58:47;;;;;;;6.70;3.72;;;;;;;9.12;100.00;98633.85;1753037;81;21032;-73
2021/11/20 03:01:22;;;;;;;4.67;3.80;;;;;;;9.15;100.00;98624.48;1753366;81;21084;-74
2021/11/20 03:03:50;;;;;;;5.90;3.85;;;;;;;9.17;100.00;98633.12;1752717;80;21563;-75
2021/11/20 03:06:16;;;;;;;4.37;3.27;;;;;;;9.22;100.00;98632.40;1753487;81;22177;-78
2021/11/20 03:08:43;;;;;;;6.15;3.60;;;;;;;9.27;100.00;98633.45;1753285;81;21895;-78
2021/11/20 03:11:13;;;;;;;5.50;3.60;;;;;;;9.30;100.00;98632.84;1753139;81;21025;-77
2021/11/20 03:13:44;;;;;;;4.78;3.47;;;;;;;9.33;100.00;98630.50;1753168;81;21056;-77
2021/11/20 03:16:12;;;;;;;3.83;3.12;;;;;;;9.35;100.00;98622.91;1753245;81;21063;-76
2021/11/20 03:18:40;;;;;;;6.70;3.50;;;;;;;9.39;100.00;98628.37;1752921;81;21039;-77
2021/11/20 03:21:07;;;;;;;6.17;3.50;;;;;;;9.42;100.00;98624.73;1752940;81;21125;-77
2021/11/20 03:23:45;;;;;;;3.45;2.52;;;;;;;9.47;100.00;98627.09;1752956;81;21056;-77
2021/11/20 03:26:12;;;;;;;4.65;3.00;;;;;;;9.50;100.00;98630.41;1753376;80;21009;-79
2021/11/20 03:28:39;;;;;;;3.90;2.62;;;;;;;9.52;100.00;98634.25;1753308;81;21056;-77
2021/11/20 03:31:05;;;;;;;4.05;2.90;;;;;;;9.55;100.00;98637.56;1753264;81;21532;-78
2021/11/20 03:33:33;;;;;;;3.87;2.83;;;;;;;9.57;100.00;98636.14;1753036;81;22061;-75
2021/11/20 03:36:04;;;;;;;9.20;3.25;;;;;;;9.61;100.00;98635.04;1764732;80;21033;-75
2021/11/20 03:38:31;;;;;;;4.55;3.12;;;;;;;9.65;100.00;98631.31;1783948;80;21080;-76
2021/11/20 03:41:00;;;;;;;4.65;3.02;;;;;;;9.67;100.00;98625.50;1783346;80;21020;-77
2021/11/20 03:43:27;;;;;;;5.20;3.50;;;;;;;9.69;100.00;98633.31;1784553;80;21041;-75
2021/11/20 03:45:54;;;;;;;5.00;3.30;;;;;;;9.68;100.00;98624.55;1784263;80;21477;-75
2021/11/20 03:48:20;;;;;;;5.05;3.37;;;;;;;9.69;100.00;98631.52;1783887;80;21020;-75
2021/11/20 03:50:47;;;;;;;5.55;3.47;;;;;;;9.70;100.00;98621.84;1783758;80;21516;-73
2021/11/20 03:53:14;;;;;;;4.65;2.87;;;;;;;9.73;100.00;98629.10;1783897;80;21616;-74
2021/11/20 03:55:44;;;;;;;5.40;2.75;;;;;;;9.76;100.00;98632.02;1783833;80;21144;-72
2021/11/20 03:58:11;;;;;;;5.33;3.22;;;;;;;9.77;100.00;98629.28;1755496;80;21127;-72
2021/11/20 04:00:43;;;;;;;5.28;3.00;;;;;;;9.77;100.00;98635.02;1783925;80;20997;-73
2021/11/20 04:03:12;;;;;;;4.83;2.55;;;;;;;9.78;100.00;98638.04;1783878;80;21531;-72
2021/11/20 04:05:40;;;;;;;6.78;2.50;;;;;;;9.76;100.00;98629.39;1783938;80;21064;-71
2021/11/20 04:08:08;;;;;;;4.17;2.15;;;;;;;9.77;100.00;98638.48;1783867;80;21111;-74
2021/11/20 04:10:35;;;;;;;4.65;2.30;;;;;;;9.77;100.00;98637.17;1783756;80;21965;-71
2021/11/20 04:13:03;;;;;;;2.77;1.70;;;;;;;9.76;100.00;98638.12;1783883;80;21523;-73
2021/11/20 04:15:32;;;;;;;3.02;1.65;;;;;;;9.74;100.00;98645.24;1784228;80;21028;-72
2021/11/20 04:17:59;;;;;;;2.22;1.80;;;;;;;9.73;100.00;98646.19;1784040;80;21641;-73
2021/11/20 04:20:26;;;;;;;1.82;1.65;;;;;;;9.71;100.00;98661.20;1784106;80;21075;-72
2021/11/20 04:22:53;;;;;;;2.00;1.35;;;;;;;9.70;100.00;98658.17;1784471;80;21258;-71
2021/11/20 04:25:21;;;;;;;1.60;1.20;;;;;;;9.69;100.00;98649.08;1784188;80;21455;-71
2021/11/20 04:27:50;;;;;;;3.40;1.75;;;;;;;9.66;100.00;98668.03;1783801;80;24519;-72
2021/11/20 04:30:24;;;;;;;2.47;1.55;;;;;;;9.66;100.00;98654.02;1782394;80;21532;-74
2021/11/20 04:32:52;;;;;;;1.85;1.30;;;;;;;9.66;100.00;98654.02;1784829;80;21599;-72
2021/11/20 04:35:21;;;;;;;2.72;1.42;;;;;;;9.65;100.00;98656.28;1781423;80;22154;-74
2021/11/20 04:37:48;;;;;;;2.65;1.05;;;;;;;9.65;100.00;98658.91;1753108;81;21005;-73
2021/11/20 04:40:17;;;;;;;4.62;1.77;;;;;;;9.66;100.00;98647.45;1753221;81;21013;-78
2021/11/20 04:42:44;;;;;;;3.08;2.10;;;;;;;9.66;100.00;98655.33;1753616;81;21119;-80
2021/11/20 04:45:13;;;;;;;1.85;1.60;;;;;;;9.66;100.00;98648.77;1753376;81;21270;-77
2021/11/20 04:47:41;;;;;;;3.25;1.95;;;;;;;9.67;100.00;98659.67;1753984;80;21454;-76
2021/11/20 04:50:10;;;;;;;3.67;2.27;;;;;;;9.69;100.00;98657.81;1753100;81;21035;-86
2021/11/20 04:52:37;;;;;;;2.33;2.12;;;;;;;9.69;100.00;98657.81;1774068;80;21009;-87
2021/11/20 04:55:06;;;;;;;3.87;2.33;;;;;;;9.69;100.00;98661.75;1772184;80;21044;-74
2021/11/20 04:57:35;;;;;;;5.00;2.42;;;;;;;9.71;100.00;98661.64;1753417;81;21111;-75
2021/11/20 05:00:08;;;;;;;4.22;2.52;;;;;;;9.69;100.00;98657.81;1753327;81;22143;-74
2021/11/20 05:02:37;;;;;;;3.42;2.40;;;;;;;9.68;100.00;98644.74;1753429;80;21600;-78
2021/11/20 05:05:05;;;;;;;6.05;3.05;;;;;;;9.65;100.00;98661.54;1771084;80;21472;-77
2021/11/20 05:07:33;;;;;;;4.05;2.60;;;;;;;9.64;100.00;98657.23;1768725;80;21107;-78
2021/11/20 05:10:00;;;;;;;3.47;2.55;;;;;;;9.62;100.00;98653.36;1762838;80;21479;-81
2021/11/20 05:12:29;;;;;;;5.87;3.05;;;;;;;9.62;100.00;98666.98;1775088;80;21005;-79
2021/11/20 05:14:57;;;;;;;3.92;2.72;;;;;;;9.61;100.00;98674.47;1701247;83;21568;-79
2021/11/20 05:17:25;;;;;;;6.40;3.02;;;;;;;9.60;100.00;98681.98;1704365;83;21568;-79
2021/11/20 05:19:52;;;;;;;4.72;2.85;;;;;;;9.59;100.00;98689.03;1715186;83;21073;-79
2021/11/20 05:22:19;;;;;;;8.58;3.42;;;;;;;9.56;100.00;98673.89;1718046;83;21758;-76
2021/11/20 05:24:45;;;;;;;6.15;3.47;;;;;;;9.54;100.00;98684.95;1705323;83;21535;-76
2021/11/20 05:27:12;;;;;;;5.35;3.02;;;;;;;9.49;100.00;98694.88;1712813;83;21548;-83
2021/11/20 05:32:09;;;;;;;7.97;3.20;;;;;;;9.45;100.00;98699.00;1677383;82;21090;-83
2021/11/20 05:34:37;;;;;;;8.33;2.50;;;;;;;9.43;100.00;98698.67;1729205;82;21010;-82
2021/11/20 05:37:05;;;;;;;5.30;2.52;;;;;;;9.39;100.00;98693.23;1705780;82;21099;-85
2021/11/20 05:39:31;;;;;;;6.20;2.62;;;;;;;9.38;100.00;98716.00;1700786;83;20999;-86
2021/11/20 05:41:59;;;;;;;5.35;2.67;;;;;;;9.35;100.00;98710.92;1701345;84;21065;-85
2021/11/20 05:44:28;;;;;;;8.10;2.10;;;;;;;9.31;100.00;98704.13;1700937;84;21030;-86
2021/11/20 05:47:03;;;;;;;6.37;2.90;;;;;;;9.28;100.00;98700.38;1700289;84;21010;-86
2021/11/20 05:49:35;;;;;;;4.90;2.35;;;;;;;9.26;100.00;98716.68;1700478;84;21150;-87
2021/11/20 05:52:04;;;;;;;6.45;2.02;;;;;;;9.23;100.00;98712.45;1700254;84;21494;-84
2021/11/20 05:54:32;;;;;;;5.58;2.40;;;;;;;9.19;100.00;98703.50;1712086;83;21073;-86
2021/11/20 05:57:01;;;;;;;5.47;2.22;;;;;;;9.20;100.00;98713.06;1736908;82;21076;-85
2021/11/20 05:59:29;;;;;;;5.60;2.30;;;;;;;9.17;100.00;98702.73;1744571;82;21054;-86
2021/11/20 06:01:58;;;;;;;6.05;2.50;;;;;;;9.18;100.00;98705.75;1734163;82;21118;-83
2021/11/20 06:04:29;;;;;;;6.75;2.35;;;;;;;9.19;100.00;98710.06;1726204;82;21108;-84
2021/11/20 06:06:57;;;;;;;6.80;2.22;;;;;;;9.21;100.00;98707.73;1742141;82;21109;-84
2021/11/20 06:09:24;;;;;;;8.60;2.65;;;;;;;9.19;100.00;98707.44;1750499;82;21099;-86
2021/11/20 06:11:51;;;;;;;9.20;2.70;;;;;;;9.19;100.00;98704.81;1750842;82;21080;-86
2021/11/20 06:14:18;;;;;;;7.40;2.35;;;;;;;9.19;100.00;98706.13;1748980;82;21010;-85
2021/11/20 06:16:45;;;;;;;4.97;2.33;;;;;;;9.18;100.00;98709.70;1749779;82;21155;-84
2021/11/20 06:19:12;;;;;;;5.28;2.37;;;;;;;9.13;100.00;98689.37;1750032;82;21073;-84
2021/11/20 06:21:40;;;;;;;8.63;2.80;;;;;;;9.18;100.00;98715.79;1749869;82;21054;-85
2021/11/20 06:24:07;;;;;;;6.78;2.67;;;;;;;9.21;100.00;98716.09;1749454;82;21317;-84
2021/11/20 06:26:35;;;;;;;5.70;2.17;;;;;;;9.47;100.00;98721.70;1750422;82;21505;-83
2021/11/20 06:29:04;;;;;;;5.25;2.58;;;;;;;9.82;100.00;98716.66;1749808;82;21037;-84
2021/11/20 06:31:33;;;;;;;6.37;2.33;;;;;;;10.23;100.00;98720.46;1750574;82;21109;-84
2021/11/20 06:34:02;;;;;;;6.62;2.75;;;;;;;10.47;100.00;98716.91;1729450;82;21077;-84
2021/11/20 06:36:43;;;;;;;6.80;2.67;;;;;;;10.55;100.00;98716.45;1727640;82;21441;-85
2021/11/20 06:39:11;;;;;;;6.15;2.55;;;;;;;10.58;100.00;98707.91;1749710;82;21487;-85
2021/11/20 06:41:39;;;;;;;6.67;2.37;;;;;;;10.65;100.00;98706.60;1736307;82;21551;-85
2021/11/20 06:44:05;;;;;;;8.45;2.70;;;;;;;10.62;100.00;98705.45;1728092;82;21097;-84
2021/11/20 06:46:33;;;;;;;11.45;3.08;;;;;;;10.66;100.00;98709.59;1734212;82;21093;-84
2021/11/20 06:49:01;;;;;;;8.45;2.47;;;;;;;10.78;100.00;98719.02;1736082;82;21101;-83
2021/11/20 06:51:31;;;;;;;6.95;2.80;;;;;;;11.05;100.00;98713.39;1736827;82;21754;-85
2021/11/20 06:54:17;;;;;;;8.60;2.83;;;;;;;11.47;100.00;98713.44;1733026;82;21113;-84
2021/11/20 06:57:07;;;;;;;11.30;2.92;;;;;;;11.99;100.00;98725.95;1728891;82;21006;-84
2021/11/20 07:02:50;;;;;;;7.28;2.65;;;;;;;13.16;97.59;98712.31;1730983;82;21093;-84
2021/11/20 07:05:20;;;;;;;7.58;2.45;;;;;;;13.84;94.98;98715.44;1725382;82;21036;-82
2021/11/20 07:07:47;;;;;;;11.08;2.95;;;;;;;14.36;90.45;98715.56;1726290;82;21046;-81
2021/11/20 07:10:16;;;;;;;7.60;2.60;;;;;;;14.78;87.85;98713.77;1734268;82;21117;-88
2021/11/20 07:12:43;;;;;;;7.50;3.25;;;;;;;14.99;83.18;98711.27;1741052;82;21065;-87
2021/11/20 07:15:11;;;;;;;6.40;2.25;;;;;;;15.08;81.47;98713.20;1733809;82;21085;-87
2021/11/20 07:17:39;;;;;;;9.70;2.62;;;;;;;15.08;81.04;98705.24;1736331;82;21152;-88
2021/11/20 07:20:14;;;;;;;9.83;2.35;;;;;;;14.91;80.26;98703.92;1709274;82;21474;-86
2021/11/20 07:22:49;;;;;;;10.35;2.45;;;;;;;14.60;80.22;98703.61;1735314;82;21143;-86
2021/11/20 07:25:18;;;;;;;7.85;2.52;;;;;;;14.35;80.95;98715.17;1734584;82;21565;-86
2021/11/20 07:27:44;;;;;;;10.88;2.30;;;;;;;13.98;81.61;98714.42;1734670;82;21006;-87
2021/11/20 07:30:14;;;;;;;9.70;2.20;;;;;;;13.64;81.78;98717.75;1729133;82;22156;-87
2021/11/20 07:32:49;;;;;;;9.18;2.87;;;;;;;13.36;82.89;98720.17;1733091;82;21121;-87
2021/11/20 07:35:34;;;;;;;8.85;2.50;;;;;;;13.16;84.91;98736.11;1732598;82;21707;-88
2021/11/20 07:38:04;;;;;;;11.50;2.95;;;;;;;13.00;84.65;98731.04;1714952;83;21092;-86
2021/11/20 07:40:33;;;;;;;9.48;2.20;;;;;;;13.09;84.98;98716.34;1721534;80;21060;-86
2021/11/20 07:43:00;;;;;;;13.53;2.90;;;;;;;13.08;83.77;98729.66;1719367;83;21324;-85
2021/11/20 07:45:45;;;;;;;12.40;2.40;;;;;;;13.06;83.06;98741.64;1711485;82;21055;-86
2021/11/20 07:48:15;;;;;;;7.55;2.10;;;;;;;12.91;82.50;98741.41;1750209;82;21077;-86
2021/11/20 07:50:44;;;;;;;8.85;2.00;;;;;;;12.73;82.60;98739.05;1750188;82;21169;-85
2021/11/20 07:53:14;;;;;;;8.88;2.60;;;;;;;12.51;83.30;98744.92;1740440;82;20979;-84
2021/11/20 07:55:41;;;;;;;11.08;2.65;;;;;;;12.64;83.40;98753.36;1718083;83;21117;-84
2021/11/20 07:58:07;;;;;;;11.48;2.55;;;;;;;13.15;83.39;98751.58;1755952;80;21044;-81
2021/11/20 08:00:34;;;;;;;9.98;2.85;;;;;;;13.89;80.50;98752.98;1752446;80;21029;-81
2021/11/20 08:03:06;;;;;;;6.62;2.17;;;;;;;14.57;76.73;98756.00;1685810;83;21610;-84
2021/11/20 08:05:45;;;;;;;11.65;2.37;;;;;;;15.15;73.33;98770.08;1675400;83;21113;-86
2021/11/20 08:10:39;;;;;;;10.32;2.52;;;;;;;16.32;69.74;98768.77;1790091;79;22258;-86
2021/11/20 08:13:06;;;;;;;8.30;2.30;;;;;;;16.82;64.50;98770.39;1755243;81;20977;-85
2021/11/20 08:15:35;;;;;;;9.30;2.72;;;;;;;17.30;59.17;98768.95;1745862;80;21157;-83
2021/11/20 08:18:15;;;;;;;7.05;2.50;;;;;;;17.73;55.25;98772.70;1703761;81;20980;-84
2021/11/20 08:21:03;;;;;;;7.17;2.10;;;;;;;18.08;53.35;98771.42;1698560;83;20985;-83
2021/11/20 08:23:33;;;;;;;8.37;2.47;;;;;;;18.56;49.53;98769.78;1730813;81;21033;-86
2021/11/20 08:26:01;;;;;;;13.22;2.95;;;;;;;18.82;48.91;98768.77;1754448;81;21614;-83
2021/11/20 08:28:29;;;;;;;10.03;3.02;;;;;;;19.06;47.37;98769.61;1731027;81;21564;-88
2021/11/20 08:30:57;;;;;;;10.72;3.10;;;;;;;19.06;46.58;98750.44;1755015;79;21028;-88
2021/11/20 08:33:24;;;;;;;12.40;2.90;;;;;;;18.98;45.96;98757.00;1753418;81;21483;-78
2021/11/20 08:36:11;;;;;;;13.95;3.00;;;;;;;18.59;46.96;98753.02;1754592;81;21022;-77
2021/11/20 08:38:56;;;;;;;11.30;2.20;;;;;;;17.91;47.92;98748.97;1752817;81;21050;-78
2021/11/20 08:41:24;;;;;;;8.35;2.55;;;;;;;17.42;49.66;98749.78;1748457;80;21485;-82
2021/11/20 08:43:51;;;;;;;15.65;2.77;;;;;;;17.08;51.61;98765.99;1748823;80;21025;-77
2021/11/20 08:46:23;;;;;;;10.00;2.62;;;;;;;16.52;53.03;98757.34;1729155;81;21124;-80
2021/11/20 08:48:50;;;;;;;7.33;2.65;;;;;;;16.05;53.33;98743.49;1730924;81;21057;-79
2021/11/20 08:51:20;;;;;;;13.20;2.50;;;;;;;15.93;53.75;98752.47;1784151;80;21056;-80
2021/11/20 08:53:49;;;;;;;6.85;2.22;;;;;;;15.92;52.92;98753.45;1753497;80;21290;-80
2021/11/20 08:56:16;;;;;;;12.43;3.02;;;;;;;16.32;51.59;98754.16;1789782;80;22266;-81
2021/11/20 08:58:46;;;;;;;12.07;2.87;;;;;;;16.54;50.84;98742.11;1776093;80;21205;-80
2021/11/20 09:01:29;;;;;;;9.85;2.62;;;;;;;16.60;49.30;98740.73;1763240;80;21123;-80
2021/11/20 09:04:09;;;;;;;10.13;3.00;;;;;;;16.65;49.97;98747.00;1759273;80;21724;-80
2021/11/20 09:06:48;;;;;;;7.97;2.27;;;;;;;16.59;51.45;98753.69;1757784;81;22338;-80
2021/11/20 09:09:48;;;;;;;8.93;2.60;;;;;;;16.88;50.96;98739.27;1765216;80;21516;-80
2021/11/20 09:12:25;;;;;;;8.58;2.47;;;;;;;17.36;49.26;98744.00;1726252;81;21551;-81
2021/11/20 09:15:00;;;;;;;9.53;2.22;;;;;;;17.73;47.51;98735.44;1753729;81;21036;-81
2021/11/20 09:17:38;;;;;;;7.83;2.75;;;;;;;17.92;47.71;98737.81;1753858;81;21016;-81
2021/11/20 09:20:06;;;;;;;10.55;2.60;;;;;;;18.06;45.71;98738.77;1753000;81;21487;-80
2021/11/20 09:22:34;;;;;;;8.63;3.02;;;;;;;18.31;44.30;98740.53;1751306;80;21372;-81
2021/11/20 09:25:06;;;;;;;;;;;;;;;18.08;43.75;98746.61;1737404;82;21076;-80
2021/11/20 09:27:36;;;;;;;8.68;2.65;;;;;;;18.16;42.95;98739.61;1744817;81;20198;-80
2021/11/20 09:30:07;;;;;;;7.87;2.12;;;;;;;18.15;44.09;98741.94;1745272;82;21036;-81
2021/11/20 09:32:34;;;;;;;9.60;2.33;;;;;;;17.85;43.17;98753.99;1744750;82;21066;-80
2021/11/20 09:35:03;;;;;;;7.53;2.22;;;;;;;17.58;43.11;98758.11;1743381;82;21018;-81
2021/11/20 09:37:32;;;;;;;8.85;2.85;;;;;;;17.23;46.23;98755.38;1709251;81;21024;-81
2021/11/20 09:40:04;;;;;;;10.28;2.27;;;;;;;17.20;45.71;98771.58;1751634;81;21172;-82
2021/11/20 09:42:45;;;;;;;11.40;2.40;;;;;;;17.31;46.40;98747.55;1753215;81;21059;-81
2021/11/20 09:45:25;;;;;;;10.55;2.17;;;;;;;17.31;43.53;98756.03;1753290;81;21477;-82
2021/11/20 09:47:58;;;;;;;8.40;2.08;;;;;;;17.49;42.57;98748.27;1752857;81;21044;-81
2021/11/20 09:50:31;;;;;;;;;;;;;;;17.75;41.87;98760.11;1756315;81;21060;-80
2021/11/20 09:53:00;;;;;;;7.90;2.20;;;;;;;17.97;41.75;98752.92;1753708;80;20192;-81
2021/11/20 09:55:31;;;;;;;9.30;2.47;;;;;;;17.72;42.30;98767.05;1753648;81;21092;-80
2021/11/20 09:58:09;;;;;;;12.78;2.30;;;;;;;17.16;44.03;98760.38;1754142;81;21047;-81
2021/11/20 10:00:57;;;;;;;15.70;3.10;;;;;;;16.57;44.28;98775.06;1754042;81;20986;-81
2021/11/20 10:03:36;;;;;;;9.28;2.50;;;;;;;16.01;44.44;98765.98;1753704;81;21048;-82
2021/11/20 10:06:08;;;;;;;9.10;2.20;;;;;;;15.58;45.81;98769.38;1753683;80;21789;-81
2021/11/20 10:08:39;;;;;;;11.57;2.83;;;;;;;15.59;47.55;98760.92;1752860;80;21077;-80
2021/11/20 10:11:28;;;;;;;12.00;2.47;;;;;;;15.70;48.29;98781.70;1757281;80;21765;-81
2021/11/20 10:14:06;;;;;;;10.93;2.30;;;;;;;15.67;45.47;98775.28;1756098;80;21010;-81
2021/11/20 10:16:47;;;;;;;9.60;2.20;;;;;;;15.49;45.64;98783.38;1774059;80;21678;-81
2021/11/20 10:19:25;;;;;;;7.85;2.27;;;;;;;15.24;49.09;98779.98;1765471;80;21020;-80
2021/11/20 10:22:01;;;;;;;8.73;2.20;;;;;;;15.12;48.48;98786.24;1763254;80;21484;-80
2021/11/20 10:24:52;;;;;;;10.98;2.30;;;;;;;14.86;46.52;98795.71;1752687;80;22025;-80
2021/11/20 10:39:31;;;;;;;6.35;1.85;;;;;;;14.68;47.04;98805.05;1814139;79;22602;-79
2021/11/20 10:42:21;;;;;;;14.73;2.55;;;;;;;14.45;47.22;98803.59;1760214;80;21069;-80
2021/11/20 10:45:05;;;;;;;21.85;3.55;;;;;;;14.22;47.91;98812.40;1781384;80;22033;-80
2021/11/20 10:47:40;;;;;;;14.28;2.98;;;;;;;14.16;47.74;98808.86;1781354;80;20970;-80
2021/11/20 10:50:22;;;;;;;8.85;2.00;;;;;;;14.21;46.72;98805.39;1776274;80;21038;-80
2021/11/20 10:53:38;;;;;;;13.78;2.75;;;;;;;14.22;45.73;98833.58;1777404;80;21104;-81
2021/11/20 10:56:37;;;;;;;11.88;2.25;;;;;;;14.11;46.78;98839.64;1776299;80;21104;-80
2021/11/20 10:59:18;;;;;;;8.13;2.58;;;;;;;14.04;46.27;98835.27;1751746;80;21517;-80
2021/11/20 11:01:57;;;;;;;12.98;2.70;;;;;;;13.92;46.57;98841.45;1758898;80;20910;-81
2021/11/20 11:04:57;;;;;;;11.97;3.67;;;;;;;13.81;46.71;98825.48;1775867;79;20961;-82
2021/11/20 11:07:40;;;;;;;13.18;2.20;;;;;;;13.81;48.30;98844.01;1755349;81;22149;-81
2021/11/20 11:10:12;;;;;;;9.98;2.12;;;;;;;13.69;46.88;98839.56;1744407;80;21014;-81
2021/11/20 11:12:54;;;;;;;11.30;2.20;;;;;;;13.48;48.27;98850.72;1786341;80;21143;-80
2021/11/20 11:15:56;;;;;;;15.03;3.08;;;;;;;13.21;50.66;98843.69;1786905;80;21014;-80
2021/11/20 11:18:45;;;;;;;10.85;2.72;;;;;;;12.91;49.79;98862.95;1770421;80;21037;-81
2021/11/20 11:21:42;;;;;;;8.85;2.22;;;;;;;12.71;49.69;98862.45;1787413;80;21491;-80
2021/11/20 11:24:50;;;;;;;16.80;4.10;;;;;;;12.56;49.05;98871.38;1780817;80;21029;-81
2021/11/20 11:27:27;;;;;;;18.90;3.50;;;;;;;12.62;48.95;98870.98;1780812;79;21616;-79
2021/11/20 11:30:24;;;;;;;9.60;2.50;;;;;;;12.56;49.92;98862.13;1730139;81;21029;-80
2021/11/20 11:32:51;;;;;;;9.85;2.12;;;;;;;12.42;52.50;98863.03;1729072;80;21031;-80
2021/11/20 11:35:39;;;;;;;11.00;2.27;;;;;;;12.31;51.45;98883.55;1754539;80;21064;-80
2021/11/20 11:38:58;;;;;;;14.07;2.90;;;;;;;12.31;51.17;98874.30;1734578;80;21019;-80
2021/11/20 11:41:37;;;;;;;11.22;2.22;;;;;;;12.45;52.27;98880.02;1746890;80;21764;-80
2021/11/20 11:44:12;;;;;;;14.63;2.90;;;;;;;12.41;50.44;98890.88;1738393;80;21057;-80
2021/11/20 11:47:14;;;;;;;8.68;2.33;;;;;;;12.45;51.38;98878.70;1748425;80;21023;-80
2021/11/20 11:50:08;;;;;;;13.18;3.10;;;;;;;12.54;50.78;98889.14;1742551;80;21059;-80
2021/11/20 11:53:28;;;;;;;9.78;2.33;;;;;;;12.53;49.50;98907.23;1699229;81;21048;-81
2021/11/20 11:55:57;;;;;;;15.32;2.95;;;;;;;12.35;49.17;98871.84;1741659;80;21061;-80
2021/11/20 11:58:51;;;;;;;9.83;2.80;;;;;;;12.43;49.70;98887.19;1755139;81;20996;-81
2021/11/20 12:01:26;;;;;;;11.08;2.15;;;;;;;12.71;49.05;98875.66;1732809;80;21028;-80
2021/11/20 12:04:19;;;;;;;8.60;2.65;;;;;;;12.85;48.62;98877.88;1756979;80;21128;-80
2021/11/20 12:06:53;;;;;;;12.00;2.25;;;;;;;12.88;48.87;98886.91;1671294;85;21111;-80
2021/11/20 12:09:31;;;;;;;11.25;2.47;;;;;;;13.22;46.63;98874.44;1762137;80;21552;-81
2021/11/20 12:12:14;;;;;;;10.48;2.05;;;;;;;13.26;49.37;98876.42;1695380;84;21073;-80
2021/11/20 12:14:44;;;;;;;13.08;3.20;;;;;;;13.28;51.23;98884.28;1693990;83;21141;-80
2021/11/20 12:17:29;;;;;;;8.68;2.52;;;;;;;13.23;47.64;98890.69;1690371;84;22951;-80
2021/11/20 12:20:25;;;;;;;14.78;3.17;;;;;;;12.98;47.34;98886.20;1709139;84;21093;-80
2021/11/20 12:23:05;;;;;;;16.35;4.95;;;;;;;12.96;48.17;98901.31;1728198;83;21842;-80